sensor_id;sensor_type;location;lat;lon;timestamp;temperature;humidity
69324;DHT22;56470;47.350;8.718;2023-08-24T00:01:58;27.45;53.93
69324;DHT22;56470;47.350;8.718;2023-08-24T00:04:24;27.32;53.77
69324;DHT22;56470;47.350;8.718;2023-08-24T00:06:49;27.21;53.61
69324;DHT22;56470;47.350;8.718;2023-08-24T00:09:14;27.14;53.53
69324;DHT22;56470;47.350;8.718;2023-08-24T00:11:40;27.15;53.82
69324;DHT22;56470;47.350;8.718;2023-08-24T00:14:06;27.19;53.80
69324;DHT22;56470;47.350;8.718;2023-08-24T00:16:31;27.21;53.85
69324;DHT22;56470;47.350;8.718;2023-08-24T00:18:57;27.18;53.90
69324;DHT22;56470;47.350;8.718;2023-08-24T00:21:23;27.15;53.86
69324;DHT22;56470;47.350;8.718;2023-08-24T00:23:49;27.12;53.93
69324;DHT22;56470;47.350;8.718;2023-08-24T00:26:15;27.14;53.81
69324;DHT22;56470;47.350;8.718;2023-08-24T00:28:43;27.14;53.73
69324;DHT22;56470;47.350;8.718;2023-08-24T00:31:09;27.04;53.79
69324;DHT22;56470;47.350;8.718;2023-08-24T00:33:34;26.92;53.93
69324;DHT22;56470;47.350;8.718;2023-08-24T00:36:01;26.74;54.25
69324;DHT22;56470;47.350;8.718;2023-08-24T00:38:26;26.67;54.41
69324;DHT22;56470;47.350;8.718;2023-08-24T00:40:52;26.67;54.41
69324;DHT22;56470;47.350;8.718;2023-08-24T00:43:19;26.69;54.61
69324;DHT22;56470;47.350;8.718;2023-08-24T00:45:49;26.71;54.67
69324;DHT22;56470;47.350;8.718;2023-08-24T00:48:15;26.78;54.58
69324;DHT22;56470;47.350;8.718;2023-08-24T00:50:41;26.87;54.38
69324;DHT22;56470;47.350;8.718;2023-08-24T00:53:06;26.98;54.23
69324;DHT22;56470;47.350;8.718;2023-08-24T00:55:31;27.05;54.12
69324;DHT22;56470;47.350;8.718;2023-08-24T00:57:58;27.11;54.12
69324;DHT22;56470;47.350;8.718;2023-08-24T01:00:24;27.06;54.07
69324;DHT22;56470;47.350;8.718;2023-08-24T01:02:49;27.05;54.22
69324;DHT22;56470;47.350;8.718;2023-08-24T01:05:14;27.05;54.31
69324;DHT22;56470;47.350;8.718;2023-08-24T01:07:40;27.02;54.33
69324;DHT22;56470;47.350;8.718;2023-08-24T01:10:06;26.99;54.32
69324;DHT22;56470;47.350;8.718;2023-08-24T01:12:44;26.92;54.57
69324;DHT22;56470;47.350;8.718;2023-08-24T01:15:53;26.81;55.52
69324;DHT22;56470;47.350;8.718;2023-08-24T01:18:17;26.83;54.75
69324;DHT22;56470;47.350;8.718;2023-08-24T01:20:46;26.78;54.86
69324;DHT22;56470;47.350;8.718;2023-08-24T01:23:33;26.76;55.58
69324;DHT22;56470;47.350;8.718;2023-08-24T01:28:30;26.64;55.10
69324;DHT22;56470;47.350;8.718;2023-08-24T01:30:56;26.69;55.10
69324;DHT22;56470;47.350;8.718;2023-08-24T01:33:21;26.67;54.97
69324;DHT22;56470;47.350;8.718;2023-08-24T01:35:47;26.65;55.05
69324;DHT22;56470;47.350;8.718;2023-08-24T01:38:12;26.61;55.11
69324;DHT22;56470;47.350;8.718;2023-08-24T01:41:16;26.53;55.93
69324;DHT22;56470;47.350;8.718;2023-08-24T01:43:45;26.56;55.36
69324;DHT22;56470;47.350;8.718;2023-08-24T01:46:15;26.54;55.47
69324;DHT22;56470;47.350;8.718;2023-08-24T01:48:42;26.52;55.44
69324;DHT22;56470;47.350;8.718;2023-08-24T01:51:08;26.56;55.48
69324;DHT22;56470;47.350;8.718;2023-08-24T01:53:36;26.46;55.56
69324;DHT22;56470;47.350;8.718;2023-08-24T01:56:10;26.37;56.28
69324;DHT22;56470;47.350;8.718;2023-08-24T01:58:36;26.32;56.12
69324;DHT22;56470;47.350;8.718;2023-08-24T02:01:01;26.26;56.34
69324;DHT22;56470;47.350;8.718;2023-08-24T02:03:27;26.25;56.47
69324;DHT22;56470;47.350;8.718;2023-08-24T02:05:52;26.22;56.50
69324;DHT22;56470;47.350;8.718;2023-08-24T02:08:17;26.19;56.54
69324;DHT22;56470;47.350;8.718;2023-08-24T02:10:43;26.21;56.72
69324;DHT22;56470;47.350;8.718;2023-08-24T02:13:08;26.21;56.67
69324;DHT22;56470;47.350;8.718;2023-08-24T02:15:33;26.25;56.60
69324;DHT22;56470;47.350;8.718;2023-08-24T02:17:59;26.24;56.56
69324;DHT22;56470;47.350;8.718;2023-08-24T02:20:24;26.19;56.58
69324;DHT22;56470;47.350;8.718;2023-08-24T02:22:50;26.15;56.81
69324;DHT22;56470;47.350;8.718;2023-08-24T02:25:15;26.09;56.97
69324;DHT22;56470;47.350;8.718;2023-08-24T02:27:40;26.08;57.22
69324;DHT22;56470;47.350;8.718;2023-08-24T02:30:06;26.14;57.17
69324;DHT22;56470;47.350;8.718;2023-08-24T02:32:32;26.15;57.14
69324;DHT22;56470;47.350;8.718;2023-08-24T02:34:57;26.19;57.15
69324;DHT22;56470;47.350;8.718;2023-08-24T02:37:22;26.19;57.04
69324;DHT22;56470;47.350;8.718;2023-08-24T02:39:48;26.18;57.14
69324;DHT22;56470;47.350;8.718;2023-08-24T02:42:13;26.16;57.23
69324;DHT22;56470;47.350;8.718;2023-08-24T02:44:38;26.21;57.24
69324;DHT22;56470;47.350;8.718;2023-08-24T02:47:04;26.21;57.25
69324;DHT22;56470;47.350;8.718;2023-08-24T02:49:29;26.19;57.17
69324;DHT22;56470;47.350;8.718;2023-08-24T02:51:55;26.18;57.35
69324;DHT22;56470;47.350;8.718;2023-08-24T02:54:20;26.16;57.34
69324;DHT22;56470;47.350;8.718;2023-08-24T02:56:45;26.12;57.39
69324;DHT22;56470;47.350;8.718;2023-08-24T02:59:11;26.08;57.49
69324;DHT22;56470;47.350;8.718;2023-08-24T03:01:36;25.98;57.70
69324;DHT22;56470;47.350;8.718;2023-08-24T03:04:03;25.97;57.90
69324;DHT22;56470;47.350;8.718;2023-08-24T03:06:30;25.98;57.93
69324;DHT22;56470;47.350;8.718;2023-08-24T03:08:55;25.97;58.00
69324;DHT22;56470;47.350;8.718;2023-08-24T03:11:21;26.01;57.99
69324;DHT22;56470;47.350;8.718;2023-08-24T03:13:46;26.05;58.01
69324;DHT22;56470;47.350;8.718;2023-08-24T03:16:11;26.06;57.96
69324;DHT22;56470;47.350;8.718;2023-08-24T03:18:37;26.06;57.83
69324;DHT22;56470;47.350;8.718;2023-08-24T03:21:02;26.02;57.90
69324;DHT22;56470;47.350;8.718;2023-08-24T03:23:27;25.97;58.03
69324;DHT22;56470;47.350;8.718;2023-08-24T03:25:55;25.91;58.13
69324;DHT22;56470;47.350;8.718;2023-08-24T03:28:21;25.81;58.25
69324;DHT22;56470;47.350;8.718;2023-08-24T03:30:48;25.64;58.68
69324;DHT22;56470;47.350;8.718;2023-08-24T03:33:14;25.61;58.90
69324;DHT22;56470;47.350;8.718;2023-08-24T03:35:40;25.57;58.94
69324;DHT22;56470;47.350;8.718;2023-08-24T03:38:05;25.54;58.98
69324;DHT22;56470;47.350;8.718;2023-08-24T03:40:30;25.56;59.18
69324;DHT22;56470;47.350;8.718;2023-08-24T03:42:56;25.59;59.13
69324;DHT22;56470;47.350;8.718;2023-08-24T03:45:22;25.64;59.01
69324;DHT22;56470;47.350;8.718;2023-08-24T03:47:47;25.70;59.02
69324;DHT22;56470;47.350;8.718;2023-08-24T03:50:13;25.66;59.07
69324;DHT22;56470;47.350;8.718;2023-08-24T03:52:38;25.64;59.14
69324;DHT22;56470;47.350;8.718;2023-08-24T03:55:05;25.67;59.32
69324;DHT22;56470;47.350;8.718;2023-08-24T03:57:31;25.67;59.28
69324;DHT22;56470;47.350;8.718;2023-08-24T03:59:57;25.59;59.48
69324;DHT22;56470;47.350;8.718;2023-08-24T04:02:23;25.59;59.43
69324;DHT22;56470;47.350;8.718;2023-08-24T04:04:50;25.60;59.43
69324;DHT22;56470;47.350;8.718;2023-08-24T04:07:15;25.69;59.35
69324;DHT22;56470;47.350;8.718;2023-08-24T04:09:40;25.73;59.16
69324;DHT22;56470;47.350;8.718;2023-08-24T04:12:06;25.75;59.06
69324;DHT22;56470;47.350;8.718;2023-08-24T04:14:31;25.77;59.05
69324;DHT22;56470;47.350;8.718;2023-08-24T04:16:57;25.74;59.13
69324;DHT22;56470;47.350;8.718;2023-08-24T04:19:22;25.78;59.07
69324;DHT22;56470;47.350;8.718;2023-08-24T04:21:47;25.75;58.98
69324;DHT22;56470;47.350;8.718;2023-08-24T04:24:13;25.67;59.35
69324;DHT22;56470;47.350;8.718;2023-08-24T04:26:38;25.66;59.46
69324;DHT22;56470;47.350;8.718;2023-08-24T04:29:03;25.69;59.36
69324;DHT22;56470;47.350;8.718;2023-08-24T04:31:29;25.70;59.31
69324;DHT22;56470;47.350;8.718;2023-08-24T04:33:54;25.70;59.28
69324;DHT22;56470;47.350;8.718;2023-08-24T04:36:19;25.69;59.18
69324;DHT22;56470;47.350;8.718;2023-08-24T04:38:45;25.61;59.20
69324;DHT22;56470;47.350;8.718;2023-08-24T04:41:10;25.50;59.36
69324;DHT22;56470;47.350;8.718;2023-08-24T04:43:37;25.40;59.55
69324;DHT22;56470;47.350;8.718;2023-08-24T04:46:03;25.37;59.62
69324;DHT22;56470;47.350;8.718;2023-08-24T04:48:28;25.30;59.78
69324;DHT22;56470;47.350;8.718;2023-08-24T04:51:01;25.36;59.92
69324;DHT22;56470;47.350;8.718;2023-08-24T04:53:27;25.39;59.94
69324;DHT22;56470;47.350;8.718;2023-08-24T04:55:52;25.44;59.85
69324;DHT22;56470;47.350;8.718;2023-08-24T04:58:18;25.51;59.85
69324;DHT22;56470;47.350;8.718;2023-08-24T05:00:43;25.61;59.74
69324;DHT22;56470;47.350;8.718;2023-08-24T05:03:09;25.57;59.66
69324;DHT22;56470;47.350;8.718;2023-08-24T05:05:35;25.54;59.86
69324;DHT22;56470;47.350;8.718;2023-08-24T05:08:03;25.59;59.96
69324;DHT22;56470;47.350;8.718;2023-08-24T05:10:33;25.64;59.86
69324;DHT22;56470;47.350;8.718;2023-08-24T05:12:59;25.60;59.82
69324;DHT22;56470;47.350;8.718;2023-08-24T05:15:25;25.57;60.14
69324;DHT22;56470;47.350;8.718;2023-08-24T05:17:50;25.66;60.05
69324;DHT22;56470;47.350;8.718;2023-08-24T05:20:19;25.70;59.95
69324;DHT22;56470;47.350;8.718;2023-08-24T05:22:45;25.75;59.95
69324;DHT22;56470;47.350;8.718;2023-08-24T05:25:10;25.77;59.82
69324;DHT22;56470;47.350;8.718;2023-08-24T05:27:36;25.81;59.86
69324;DHT22;56470;47.350;8.718;2023-08-24T05:30:02;25.88;59.67
69324;DHT22;56470;47.350;8.718;2023-08-24T05:32:27;25.92;59.45
69324;DHT22;56470;47.350;8.718;2023-08-24T05:34:53;25.87;59.48
69324;DHT22;56470;47.350;8.718;2023-08-24T05:37:18;25.81;59.70
69324;DHT22;56470;47.350;8.718;2023-08-24T05:39:43;25.82;59.82
69324;DHT22;56470;47.350;8.718;2023-08-24T05:42:09;25.85;59.73
69324;DHT22;56470;47.350;8.718;2023-08-24T05:44:35;25.87;59.72
69324;DHT22;56470;47.350;8.718;2023-08-24T05:47:00;25.94;59.67
69324;DHT22;56470;47.350;8.718;2023-08-24T05:49:26;26.02;59.57
69324;DHT22;56470;47.350;8.718;2023-08-24T05:51:52;26.09;59.52
69324;DHT22;56470;47.350;8.718;2023-08-24T05:54:17;26.16;59.30
69324;DHT22;56470;47.350;8.718;2023-08-24T05:56:46;26.16;59.14
69324;DHT22;56470;47.350;8.718;2023-08-24T05:59:11;26.22;59.10
69324;DHT22;56470;47.350;8.718;2023-08-24T06:01:36;26.21;59.03
69324;DHT22;56470;47.350;8.718;2023-08-24T06:04:09;26.22;59.11
69324;DHT22;56470;47.350;8.718;2023-08-24T06:06:35;26.29;59.12
69324;DHT22;56470;47.350;8.718;2023-08-24T06:09:00;26.32;59.04
69324;DHT22;56470;47.350;8.718;2023-08-24T06:11:25;26.36;58.97
69324;DHT22;56470;47.350;8.718;2023-08-24T06:13:51;26.39;58.83
69324;DHT22;56470;47.350;8.718;2023-08-24T06:16:19;26.37;58.94
69324;DHT22;56470;47.350;8.718;2023-08-24T06:18:44;26.40;58.81
69324;DHT22;56470;47.350;8.718;2023-08-24T06:21:09;26.40;58.84
69324;DHT22;56470;47.350;8.718;2023-08-24T06:23:35;26.44;58.85
69324;DHT22;56470;47.350;8.718;2023-08-24T06:26:00;26.46;58.73
69324;DHT22;56470;47.350;8.718;2023-08-24T06:28:26;26.54;58.79
69324;DHT22;56470;47.350;8.718;2023-08-24T06:30:51;26.61;58.63
69324;DHT22;56470;47.350;8.718;2023-08-24T06:33:17;26.71;58.39
69324;DHT22;56470;47.350;8.718;2023-08-24T06:35:42;26.77;58.20
69324;DHT22;56470;47.350;8.718;2023-08-24T06:38:08;26.87;58.16
69324;DHT22;56470;47.350;8.718;2023-08-24T06:40:33;26.91;58.08
69324;DHT22;56470;47.350;8.718;2023-08-24T06:42:58;26.94;58.11
69324;DHT22;56470;47.350;8.718;2023-08-24T06:45:24;26.97;58.28
69324;DHT22;56470;47.350;8.718;2023-08-24T06:47:49;27.04;58.38
69324;DHT22;56470;47.350;8.718;2023-08-24T06:50:15;27.21;58.32
69324;DHT22;56470;47.350;8.718;2023-08-24T06:52:41;27.39;58.12
69324;DHT22;56470;47.350;8.718;2023-08-24T06:55:08;27.63;57.67
69324;DHT22;56470;47.350;8.718;2023-08-24T06:57:35;27.77;57.26
69324;DHT22;56470;47.350;8.718;2023-08-24T07:00:00;27.94;56.80
69324;DHT22;56470;47.350;8.718;2023-08-24T07:02:25;28.15;56.42
69324;DHT22;56470;47.350;8.718;2023-08-24T07:04:51;28.32;55.98
69324;DHT22;56470;47.350;8.718;2023-08-24T07:07:16;28.55;55.54
69324;DHT22;56470;47.350;8.718;2023-08-24T07:09:41;28.71;55.01
69324;DHT22;56470;47.350;8.718;2023-08-24T07:12:07;28.83;54.80
69324;DHT22;56470;47.350;8.718;2023-08-24T07:14:35;28.95;54.59
69324;DHT22;56470;47.350;8.718;2023-08-24T07:17:01;29.16;54.33
69324;DHT22;56470;47.350;8.718;2023-08-24T07:19:26;29.39;53.84
69324;DHT22;56470;47.350;8.718;2023-08-24T07:21:52;29.59;53.31
69324;DHT22;56470;47.350;8.718;2023-08-24T07:24:17;29.76;53.01
69324;DHT22;56470;47.350;8.718;2023-08-24T07:26:46;29.91;52.77
69324;DHT22;56470;47.350;8.718;2023-08-24T07:29:11;30.05;52.54
69324;DHT22;56470;47.350;8.718;2023-08-24T07:31:37;30.28;52.11
69324;DHT22;56470;47.350;8.718;2023-08-24T07:34:03;30.43;51.85
69324;DHT22;56470;47.350;8.718;2023-08-24T07:36:29;30.63;51.61
69324;DHT22;56470;47.350;8.718;2023-08-24T07:38:55;30.84;51.11
69324;DHT22;56470;47.350;8.718;2023-08-24T07:41:20;30.99;50.71
69324;DHT22;56470;47.350;8.718;2023-08-24T07:43:46;31.15;50.18
69324;DHT22;56470;47.350;8.718;2023-08-24T07:46:11;31.25;49.95
69324;DHT22;56470;47.350;8.718;2023-08-24T07:48:37;31.32;49.70
69324;DHT22;56470;47.350;8.718;2023-08-24T07:51:02;31.35;49.70
69324;DHT22;56470;47.350;8.718;2023-08-24T07:53:28;31.35;49.69
69324;DHT22;56470;47.350;8.718;2023-08-24T07:55:54;31.32;49.72
69324;DHT22;56470;47.350;8.718;2023-08-24T07:58:21;31.31;49.84
69324;DHT22;56470;47.350;8.718;2023-08-24T08:00:49;31.47;49.70
69324;DHT22;56470;47.350;8.718;2023-08-24T08:03:15;31.73;49.57
69324;DHT22;56470;47.350;8.718;2023-08-24T08:05:44;31.91;49.14
69324;DHT22;56470;47.350;8.718;2023-08-24T08:08:13;31.81;49.12
69324;DHT22;56470;47.350;8.718;2023-08-24T08:10:39;31.77;49.11
69324;DHT22;56470;47.350;8.718;2023-08-24T08:13:04;31.67;49.50
69324;DHT22;56470;47.350;8.718;2023-08-24T08:15:30;31.67;49.73
69324;DHT22;56470;47.350;8.718;2023-08-24T08:17:55;31.69;49.70
69324;DHT22;56470;47.350;8.718;2023-08-24T08:20:20;31.69;49.88
69324;DHT22;56470;47.350;8.718;2023-08-24T08:22:46;31.78;49.60
69324;DHT22;56470;47.350;8.718;2023-08-24T08:25:11;31.83;49.31
69324;DHT22;56470;47.350;8.718;2023-08-24T08:27:43;31.74;49.56
69324;DHT22;56470;47.350;8.718;2023-08-24T08:30:08;31.77;49.70
69324;DHT22;56470;47.350;8.718;2023-08-24T08:32:34;31.70;49.78
69324;DHT22;56470;47.350;8.718;2023-08-24T08:34:59;31.60;49.85
69324;DHT22;56470;47.350;8.718;2023-08-24T08:37:26;31.66;49.73
69324;DHT22;56470;47.350;8.718;2023-08-24T08:39:51;31.56;49.62
69324;DHT22;56470;47.350;8.718;2023-08-24T08:42:17;31.56;49.68
69324;DHT22;56470;47.350;8.718;2023-08-24T08:44:44;31.62;49.54
69324;DHT22;56470;47.350;8.718;2023-08-24T08:47:11;31.69;49.36
69324;DHT22;56470;47.350;8.718;2023-08-24T08:49:38;31.91;49.19
69324;DHT22;56470;47.350;8.718;2023-08-24T08:52:04;32.24;48.75
69324;DHT22;56470;47.350;8.718;2023-08-24T08:54:30;32.45;48.14
69324;DHT22;56470;47.350;8.718;2023-08-24T08:56:56;32.52;47.67
69324;DHT22;56470;47.350;8.718;2023-08-24T08:59:22;32.53;47.33
69324;DHT22;56470;47.350;8.718;2023-08-24T09:01:48;32.79;47.26
69324;DHT22;56470;47.350;8.718;2023-08-24T09:04:16;33.08;46.89
69324;DHT22;56470;47.350;8.718;2023-08-24T09:06:41;33.31;46.32
69324;DHT22;56470;47.350;8.718;2023-08-24T09:09:07;33.35;46.12
69324;DHT22;56470;47.350;8.718;2023-08-24T09:11:33;33.28;45.89
69324;DHT22;56470;47.350;8.718;2023-08-24T09:13:58;33.22;46.12
69324;DHT22;56470;47.350;8.718;2023-08-24T09:16:29;33.45;45.62
69324;DHT22;56470;47.350;8.718;2023-08-24T09:18:54;33.59;45.76
69324;DHT22;56470;47.350;8.718;2023-08-24T09:21:19;33.83;45.50
69324;DHT22;56470;47.350;8.718;2023-08-24T09:23:55;34.01;44.06
69324;DHT22;56470;47.350;8.718;2023-08-24T09:26:31;33.97;44.18
69324;DHT22;56470;47.350;8.718;2023-08-24T09:28:57;33.90;44.69
69324;DHT22;56470;47.350;8.718;2023-08-24T09:31:24;33.97;44.74
69324;DHT22;56470;47.350;8.718;2023-08-24T09:34:02;33.97;44.43
69324;DHT22;56470;47.350;8.718;2023-08-24T09:36:34;33.94;44.49
69324;DHT22;56470;47.350;8.718;2023-08-24T09:39:00;33.90;44.75
69324;DHT22;56470;47.350;8.718;2023-08-24T09:41:43;33.93;44.45
69324;DHT22;56470;47.350;8.718;2023-08-24T09:44:09;33.90;44.57
69324;DHT22;56470;47.350;8.718;2023-08-24T09:46:35;33.86;44.73
69324;DHT22;56470;47.350;8.718;2023-08-24T09:49:05;34.03;44.51
69324;DHT22;56470;47.350;8.718;2023-08-24T09:51:32;34.20;44.21
69324;DHT22;56470;47.350;8.718;2023-08-24T09:53:58;34.31;44.05
69324;DHT22;56470;47.350;8.718;2023-08-24T09:56:28;34.29;44.17
69324;DHT22;56470;47.350;8.718;2023-08-24T09:58:55;34.41;44.09
69324;DHT22;56470;47.350;8.718;2023-08-24T10:01:23;34.51;43.88
69324;DHT22;56470;47.350;8.718;2023-08-24T10:03:51;34.45;43.74
69324;DHT22;56470;47.350;8.718;2023-08-24T10:06:21;34.34;43.87
69324;DHT22;56470;47.350;8.718;2023-08-24T10:08:54;34.29;43.81
69324;DHT22;56470;47.350;8.718;2023-08-24T10:11:26;34.40;43.80
69324;DHT22;56470;47.350;8.718;2023-08-24T10:16:22;34.72;43.28
69324;DHT22;56470;47.350;8.718;2023-08-24T10:18:49;34.87;42.88
69324;DHT22;56470;47.350;8.718;2023-08-24T10:21:17;34.93;42.67
69324;DHT22;56470;47.350;8.718;2023-08-24T10:23:43;34.82;42.51
69324;DHT22;56470;47.350;8.718;2023-08-24T10:26:10;34.60;42.45
69324;DHT22;56470;47.350;8.718;2023-08-24T10:28:37;34.59;42.40
69324;DHT22;56470;47.350;8.718;2023-08-24T10:31:02;34.65;42.49
69324;DHT22;56470;47.350;8.718;2023-08-24T10:33:29;34.69;42.41
69324;DHT22;56470;47.350;8.718;2023-08-24T10:35:56;34.85;42.27
69324;DHT22;56470;47.350;8.718;2023-08-24T10:38:30;34.78;42.22
69324;DHT22;56470;47.350;8.718;2023-08-24T10:41:05;34.78;42.34
69324;DHT22;56470;47.350;8.718;2023-08-24T10:43:35;34.63;42.84
69324;DHT22;56470;47.350;8.718;2023-08-24T10:46:00;34.62;43.15
69324;DHT22;56470;47.350;8.718;2023-08-24T10:48:30;34.68;42.93
69324;DHT22;56470;47.350;8.718;2023-08-24T10:53:59;34.17;43.20
69324;DHT22;56470;47.350;8.718;2023-08-24T10:56:38;33.93;43.03
69324;DHT22;56470;47.350;8.718;2023-08-24T10:59:20;33.86;43.63
69324;DHT22;56470;47.350;8.718;2023-08-24T11:08:11;34.25;42.35
69324;DHT22;56470;47.350;8.718;2023-08-24T11:10:55;34.32;42.65
69324;DHT22;56470;47.350;8.718;2023-08-24T11:13:24;34.37;42.52
69324;DHT22;56470;47.350;8.718;2023-08-24T11:15:52;34.40;42.39
69324;DHT22;56470;47.350;8.718;2023-08-24T11:18:25;34.37;42.41
69324;DHT22;56470;47.350;8.718;2023-08-24T11:21:05;34.34;42.24
69324;DHT22;56470;47.350;8.718;2023-08-24T11:23:56;34.41;41.95
69324;DHT22;56470;47.350;8.718;2023-08-24T11:27:09;34.52;41.80
69324;DHT22;56470;47.350;8.718;2023-08-24T11:29:38;34.62;41.60
69324;DHT22;56470;47.350;8.718;2023-08-24T11:35:55;34.83;41.10
69324;DHT22;56470;47.350;8.718;2023-08-24T11:38:56;34.82;40.41
69324;DHT22;56470;47.350;8.718;2023-08-24T11:45:13;34.99;40.39
69324;DHT22;56470;47.350;8.718;2023-08-24T11:48:44;34.96;39.86
69324;DHT22;56470;47.350;8.718;2023-08-24T11:51:17;34.86;40.91
69324;DHT22;56470;47.350;8.718;2023-08-24T11:53:46;34.76;41.06
69324;DHT22;56470;47.350;8.718;2023-08-24T11:56:52;34.60;40.67
69324;DHT22;56470;47.350;8.718;2023-08-24T11:59:39;34.53;41.31
69324;DHT22;56470;47.350;8.718;2023-08-24T12:02:06;34.55;41.18
69324;DHT22;56470;47.350;8.718;2023-08-24T12:08:14;34.59;40.60
69324;DHT22;56470;47.350;8.718;2023-08-24T12:10:51;34.44;40.55
69324;DHT22;56470;47.350;8.718;2023-08-24T12:14:03;34.31;41.24
69324;DHT22;56470;47.350;8.718;2023-08-24T12:16:37;34.27;41.34
69324;DHT22;56470;47.350;8.718;2023-08-24T12:19:07;34.21;41.35
69324;DHT22;56470;47.350;8.718;2023-08-24T12:21:32;34.07;41.65
69324;DHT22;56470;47.350;8.718;2023-08-24T12:24:02;33.90;41.71
69324;DHT22;56470;47.350;8.718;2023-08-24T12:26:35;33.86;41.92
69324;DHT22;56470;47.350;8.718;2023-08-24T12:29:08;33.81;41.35
69324;DHT22;56470;47.350;8.718;2023-08-24T12:31:34;33.85;41.82
69324;DHT22;56470;47.350;8.718;2023-08-24T12:34:04;33.85;41.83
69324;DHT22;56470;47.350;8.718;2023-08-24T12:36:33;33.81;41.65
69324;DHT22;56470;47.350;8.718;2023-08-24T12:39:01;33.79;41.84
69324;DHT22;56470;47.350;8.718;2023-08-24T12:41:29;33.72;41.77
69324;DHT22;56470;47.350;8.718;2023-08-24T12:43:55;33.72;41.87
69324;DHT22;56470;47.350;8.718;2023-08-24T12:46:20;33.70;41.91
69324;DHT22;56470;47.350;8.718;2023-08-24T12:48:45;33.72;42.12
69324;DHT22;56470;47.350;8.718;2023-08-24T12:51:11;33.70;42.14
69324;DHT22;56470;47.350;8.718;2023-08-24T12:53:37;33.73;42.14
69324;DHT22;56470;47.350;8.718;2023-08-24T12:56:02;33.70;41.86
69324;DHT22;56470;47.350;8.718;2023-08-24T12:58:28;33.76;41.68
69324;DHT22;56470;47.350;8.718;2023-08-24T13:00:53;33.77;41.62
69324;DHT22;56470;47.350;8.718;2023-08-24T13:03:18;33.76;41.63
69324;DHT22;56470;47.350;8.718;2023-08-24T13:05:44;33.79;41.62
69324;DHT22;56470;47.350;8.718;2023-08-24T13:08:09;33.79;41.69
69324;DHT22;56470;47.350;8.718;2023-08-24T13:10:34;33.83;41.60
69324;DHT22;56470;47.350;8.718;2023-08-24T13:13:02;33.85;41.54
69324;DHT22;56470;47.350;8.718;2023-08-24T13:15:28;33.90;41.38
69324;DHT22;56470;47.350;8.718;2023-08-24T13:17:54;33.94;41.20
69324;DHT22;56470;47.350;8.718;2023-08-24T13:20:19;34.00;41.05
69324;DHT22;56470;47.350;8.718;2023-08-24T13:22:44;33.96;41.13
69324;DHT22;56470;47.350;8.718;2023-08-24T13:25:10;33.87;41.28
69324;DHT22;56470;47.350;8.718;2023-08-24T13:27:35;33.86;41.57
69324;DHT22;56470;47.350;8.718;2023-08-24T13:30:01;33.77;41.03
69324;DHT22;56470;47.350;8.718;2023-08-24T13:32:27;33.80;40.90
69324;DHT22;56470;47.350;8.718;2023-08-24T13:34:52;33.80;40.64
69324;DHT22;56470;47.350;8.718;2023-08-24T13:37:18;33.87;40.53
69324;DHT22;56470;47.350;8.718;2023-08-24T13:39:43;33.89;40.57
69324;DHT22;56470;47.350;8.718;2023-08-24T13:42:09;33.86;40.83
69324;DHT22;56470;47.350;8.718;2023-08-24T13:44:34;33.86;40.92
69324;DHT22;56470;47.350;8.718;2023-08-24T13:46:59;33.73;41.08
69324;DHT22;56470;47.350;8.718;2023-08-24T13:49:25;33.72;40.89
69324;DHT22;56470;47.350;8.718;2023-08-24T13:51:50;33.66;40.82
69324;DHT22;56470;47.350;8.718;2023-08-24T13:54:17;33.68;40.68
69324;DHT22;56470;47.350;8.718;2023-08-24T13:56:47;33.68;40.64
69324;DHT22;56470;47.350;8.718;2023-08-24T13:59:13;33.72;40.57
69324;DHT22;56470;47.350;8.718;2023-08-24T14:01:40;33.74;40.47
69324;DHT22;56470;47.350;8.718;2023-08-24T14:04:05;33.76;40.17
69324;DHT22;56470;47.350;8.718;2023-08-24T14:06:32;33.74;39.82
69324;DHT22;56470;47.350;8.718;2023-08-24T14:09:00;33.76;39.82
69324;DHT22;56470;47.350;8.718;2023-08-24T14:11:25;33.77;39.84
69324;DHT22;56470;47.350;8.718;2023-08-24T14:13:51;33.80;39.87
69324;DHT22;56470;47.350;8.718;2023-08-24T14:16:17;33.89;39.97
69324;DHT22;56470;47.350;8.718;2023-08-24T14:18:43;33.93;39.96
69324;DHT22;56470;47.350;8.718;2023-08-24T14:21:08;33.94;40.11
69324;DHT22;56470;47.350;8.718;2023-08-24T14:23:35;33.93;40.30
69324;DHT22;56470;47.350;8.718;2023-08-24T14:26:00;33.92;40.49
69324;DHT22;56470;47.350;8.718;2023-08-24T14:28:49;33.89;40.18
69324;DHT22;56470;47.350;8.718;2023-08-24T14:31:16;33.93;40.46
69324;DHT22;56470;47.350;8.718;2023-08-24T14:33:41;33.87;40.46
69324;DHT22;56470;47.350;8.718;2023-08-24T14:36:06;33.86;40.46
69324;DHT22;56470;47.350;8.718;2023-08-24T14:38:32;33.87;40.65
69324;DHT22;56470;47.350;8.718;2023-08-24T14:40:57;33.92;40.77
69324;DHT22;56470;47.350;8.718;2023-08-24T14:43:22;33.94;40.73
69324;DHT22;56470;47.350;8.718;2023-08-24T14:45:48;34.00;40.80
69324;DHT22;56470;47.350;8.718;2023-08-24T14:48:13;33.89;40.52
69324;DHT22;56470;47.350;8.718;2023-08-24T14:50:39;33.87;40.48
69324;DHT22;56470;47.350;8.718;2023-08-24T14:53:05;33.92;40.55
69324;DHT22;56470;47.350;8.718;2023-08-24T14:55:30;33.93;40.48
69324;DHT22;56470;47.350;8.718;2023-08-24T14:57:55;33.96;40.27
69324;DHT22;56470;47.350;8.718;2023-08-24T15:00:22;34.01;40.22
69324;DHT22;56470;47.350;8.718;2023-08-24T15:02:48;34.04;40.12
69324;DHT22;56470;47.350;8.718;2023-08-24T15:05:13;34.01;40.18
69324;DHT22;56470;47.350;8.718;2023-08-24T15:07:38;33.96;39.91
69324;DHT22;56470;47.350;8.718;2023-08-24T15:10:04;33.93;39.90
69324;DHT22;56470;47.350;8.718;2023-08-24T15:12:30;33.92;39.97
69324;DHT22;56470;47.350;8.718;2023-08-24T15:15:01;33.94;39.98
69324;DHT22;56470;47.350;8.718;2023-08-24T15:17:30;33.96;39.60
69324;DHT22;56470;47.350;8.718;2023-08-24T15:19:55;34.00;39.65
69324;DHT22;56470;47.350;8.718;2023-08-24T15:22:23;34.03;39.67
69324;DHT22;56470;47.350;8.718;2023-08-24T15:24:50;34.03;39.70
69324;DHT22;56470;47.350;8.718;2023-08-24T15:27:16;34.07;39.89
69324;DHT22;56470;47.350;8.718;2023-08-24T15:29:41;34.08;39.80
69324;DHT22;56470;47.350;8.718;2023-08-24T15:32:06;34.15;39.72
69324;DHT22;56470;47.350;8.718;2023-08-24T15:34:32;34.18;39.48
69324;DHT22;56470;47.350;8.718;2023-08-24T15:36:58;34.20;39.47
69324;DHT22;56470;47.350;8.718;2023-08-24T15:39:23;34.20;39.56
69324;DHT22;56470;47.350;8.718;2023-08-24T15:41:49;34.21;39.59
69324;DHT22;56470;47.350;8.718;2023-08-24T15:44:14;34.21;39.47
69324;DHT22;56470;47.350;8.718;2023-08-24T15:46:40;34.24;39.38
69324;DHT22;56470;47.350;8.718;2023-08-24T15:49:05;34.23;39.43
69324;DHT22;56470;47.350;8.718;2023-08-24T15:51:31;34.21;39.57
69324;DHT22;56470;47.350;8.718;2023-08-24T15:53:56;34.18;39.81
69324;DHT22;56470;47.350;8.718;2023-08-24T15:56:22;34.17;39.88
69324;DHT22;56470;47.350;8.718;2023-08-24T15:58:47;34.14;40.16